Time;durP1;ratioP1;P1;durP2;ratioP2;P2;SDS_P1;SDS_P2;PMS_P1;PMS_P2;Temp;Humidity;BMP_temperature;BMP_pressure;BME280_temperature;BME280_humidity;BME280_pressure;Samples;Min_cycle;Max_cycle;Signal;HPM_P1;HPM_P2
2022/03/21 00:01:32;;;;;;;36.58;15.05;;;;;;;2.43;37.10;102607.06;5035086;28;20420;-71
2022/03/21 00:04:00;;;;;;;32.03;14.13;;;;;;;2.37;37.20;102609.34;5036673;28;20116;-70
2022/03/21 00:06:25;;;;;;;32.03;15.43;;;;;;;2.32;37.57;102615.25;5036928;28;20105;-70
2022/03/21 00:08:51;;;;;;;32.00;14.60;;;;;;;2.25;37.54;102605.84;5037442;28;20026;-69
2022/03/21 00:11:18;;;;;;;33.95;14.82;;;;;;;2.22;38.20;102613.00;5019407;28;20060;-70
2022/03/21 00:13:44;;;;;;;34.30;15.10;;;;;;;2.18;37.86;102610.13;5034933;28;20120;-70
2022/03/21 00:16:10;;;;;;;28.25;14.70;;;;;;;2.13;37.86;102612.38;5034430;28;20056;-70
2022/03/21 00:18:36;;;;;;;30.95;14.55;;;;;;;2.06;38.25;102601.00;5033722;28;20100;-71
2022/03/21 00:21:03;;;;;;;34.90;16.63;;;;;;;2.03;38.77;102610.13;5035064;28;20562;-71
2022/03/21 00:23:30;;;;;;;32.22;14.02;;;;;;;1.94;39.49;102603.88;5033587;28;20398;-70
2022/03/21 00:25:56;;;;;;;30.38;15.57;;;;;;;1.91;39.83;102599.81;5033420;28;20107;-70
2022/03/21 00:28:21;;;;;;;36.97;14.65;;;;;;;1.85;39.28;102601.28;5033899;28;20030;-72
2022/03/21 00:30:47;;;;;;;31.70;15.30;;;;;;;1.88;39.32;102614.56;5017743;28;20111;-70
2022/03/21 00:33:13;;;;;;;35.08;15.32;;;;;;;1.84;38.76;102610.03;5018295;28;20479;-70
2022/03/21 00:35:48;;;;;;;34.05;17.50;;;;;;;1.78;39.69;102601.06;5034435;28;20061;-71
2022/03/21 00:38:16;;;;;;;36.63;15.95;;;;;;;1.72;39.78;102608.97;5035823;28;20052;-70
2022/03/21 00:40:46;;;;;;;37.67;15.05;;;;;;;1.67;39.51;102603.63;5002174;28;20141;-70
2022/03/21 00:43:22;;;;;;;31.77;15.07;;;;;;;1.63;39.63;102601.88;5002748;28;20187;-70
2022/03/21 00:45:50;;;;;;;33.20;15.55;;;;;;;1.57;39.68;102598.56;5036469;28;20035;-69
2022/03/21 00:48:16;;;;;;;31.45;14.32;;;;;;;1.48;40.67;102606.31;5034547;28;20380;-70
2022/03/21 00:50:42;;;;;;;35.30;14.85;;;;;;;1.42;40.55;102595.72;5034447;28;20059;-70
2022/03/21 00:53:08;;;;;;;33.78;16.58;;;;;;;1.38;40.81;102598.44;5035829;28;20071;-71
2022/03/21 00:55:34;;;;;;;40.78;16.17;;;;;;;1.30;40.93;102596.59;5034392;28;20100;-70
2022/03/21 00:58:01;;;;;;;33.35;17.90;;;;;;;1.25;40.69;102600.47;5034201;28;20053;-71
2022/03/21 01:00:30;;;;;;;34.78;16.95;;;;;;;1.17;41.97;102590.25;5035530;28;20026;-70
2022/03/21 01:02:57;;;;;;;39.55;17.35;;;;;;;1.15;41.77;102603.00;5034346;28;20036;-71
2022/03/21 01:05:25;;;;;;;32.20;17.08;;;;;;;1.11;41.75;102604.88;5001666;28;20044;-70
2022/03/21 01:07:51;;;;;;;35.53;15.93;;;;;;;1.09;41.66;102602.44;5017616;28;20112;-70
2022/03/21 01:10:18;;;;;;;33.80;16.55;;;;;;;1.05;41.90;102603.50;5033805;28;20045;-69
2022/03/21 01:12:45;;;;;;;37.45;17.33;;;;;;;1.03;42.75;102597.44;5017138;28;20064;-70
2022/03/21 01:15:14;;;;;;;37.60;18.10;;;;;;;1.03;42.10;102605.88;5035360;28;20063;-70
2022/03/21 01:17:44;;;;;;;32.47;14.90;;;;;;;0.96;42.32;102594.44;5034024;28;20028;-70
2022/03/21 01:20:21;;;;;;;35.58;15.43;;;;;;;0.91;43.29;102592.69;5034016;28;20029;-70
2022/03/21 01:22:49;;;;;;;35.42;16.58;;;;;;;0.86;42.82;102592.94;5035280;28;20112;-69
2022/03/21 01:25:15;;;;;;;43.70;18.30;;;;;;;0.84;43.25;102590.50;5017503;28;20116;-71
2022/03/21 01:27:41;;;;;;;34.13;17.10;;;;;;;0.82;43.00;102592.03;5033799;28;20108;-70
2022/03/21 01:30:11;;;;;;;42.05;18.13;;;;;;;0.75;42.58;102587.03;5017357;28;20021;-70
2022/03/21 01:32:45;;;;;;;44.45;18.25;;;;;;;0.68;43.36;102595.25;5017262;28;20393;-70
2022/03/21 01:35:16;;;;;;;46.70;19.65;;;;;;;0.63;43.38;102589.88;5017215;28;20083;-70
2022/03/21 01:37:43;;;;;;;44.05;20.10;;;;;;;0.63;43.77;102594.66;5033742;28;20036;-71
2022/03/21 01:40:16;;;;;;;38.22;17.83;;;;;;;0.63;43.45;102601.09;5034838;28;20104;-71
2022/03/21 01:42:46;;;;;;;48.05;19.02;;;;;;;0.65;42.90;102603.53;5033317;28;20099;-70
2022/03/21 01:45:12;;;;;;;40.83;17.58;;;;;;;0.66;43.40;102599.56;5033510;28;20076;-70
2022/03/21 01:47:46;;;;;;;37.50;17.60;;;;;;;0.68;43.45;102597.22;5033846;28;20415;-69
2022/03/21 01:50:14;;;;;;;40.72;17.85;;;;;;;0.70;42.90;102592.06;5033280;28;20028;-71
2022/03/21 01:52:44;;;;;;;35.97;17.25;;;;;;;0.67;42.98;102582.38;5017000;28;20034;-69
2022/03/21 01:57:59;;;;;;;32.38;16.73;;;;;;;0.76;42.68;102585.03;5056862;28;20094;-71
2022/03/21 02:00:24;;;;;;;36.90;16.63;;;;;;;0.75;42.50;102589.00;5009249;28;20029;-70
2022/03/21 02:02:51;;;;;;;38.30;16.30;;;;;;;0.72;42.54;102582.13;5025033;28;20029;-70
2022/03/21 02:05:18;;;;;;;38.80;18.85;;;;;;;0.73;42.90;102585.75;5041664;28;20029;-70
2022/03/21 02:07:45;;;;;;;38.03;17.63;;;;;;;0.71;42.39;102579.69;5059130;28;20021;-70
2022/03/21 02:10:11;;;;;;;36.67;16.52;;;;;;;0.69;42.59;102571.63;5041047;28;20017;-69
2022/03/21 02:12:49;;;;;;;37.92;16.77;;;;;;;0.76;42.84;102568.22;5039620;28;20028;-70
2022/03/21 02:15:15;;;;;;;34.42;14.55;;;;;;;0.85;42.57;102568.88;5038896;28;20021;-69
2022/03/21 02:17:43;;;;;;;41.85;17.83;;;;;;;0.85;42.72;102572.50;5022157;28;20043;-70
2022/03/21 02:20:36;;;;;;;35.42;17.27;;;;;;;0.83;43.01;102571.22;5018813;28;20028;-70
2022/03/21 02:23:13;;;;;;;42.20;17.55;;;;;;;0.78;42.32;102575.13;5035384;28;20091;-70
2022/03/21 02:25:43;;;;;;;36.17;18.17;;;;;;;0.80;42.59;102571.94;5034684;28;20074;-70
2022/03/21 02:28:16;;;;;;;37.50;17.52;;;;;;;0.80;43.33;102574.72;5036152;28;20043;-70
2022/03/21 02:30:47;;;;;;;40.47;18.77;;;;;;;0.78;42.81;102572.31;5020170;28;20021;-71
2022/03/21 02:33:22;;;;;;;39.40;18.87;;;;;;;0.74;42.33;102573.38;5035562;28;20044;-70
2022/03/21 02:35:51;;;;;;;42.63;18.92;;;;;;;0.73;43.11;102578.16;5053807;28;20271;-69
2022/03/21 02:38:18;;;;;;;37.60;17.75;;;;;;;0.72;42.78;102576.53;5035991;28;20028;-69
2022/03/21 02:40:45;;;;;;;42.60;20.27;;;;;;;0.67;43.32;102573.97;5053542;28;20071;-71
2022/03/21 02:43:10;;;;;;;38.05;17.45;;;;;;;0.67;42.66;102565.56;5035982;28;20043;-70
2022/03/21 02:45:36;;;;;;;37.53;18.13;;;;;;;0.62;42.82;102560.19;5019297;28;20450;-70
2022/03/21 02:48:01;;;;;;;43.90;17.95;;;;;;;0.61;42.59;102572.59;5019165;28;20070;-70
2022/03/21 02:50:34;;;;;;;42.47;16.33;;;;;;;0.63;43.48;102572.25;5053548;28;20028;-70
2022/03/21 02:53:01;;;;;;;43.97;17.23;;;;;;;0.62;43.20;102579.84;5018989;28;20120;-69
2022/03/21 02:55:28;;;;;;;39.38;18.77;;;;;;;0.60;43.44;102572.94;5035750;28;20394;-71
2022/03/21 02:57:53;;;;;;;48.58;17.65;;;;;;;0.54;43.56;102565.97;5052575;28;20056;-70
2022/03/21 03:00:18;;;;;;;44.85;19.30;;;;;;;0.50;43.43;102565.00;5053276;28;20424;-70
2022/03/21 03:02:46;;;;;;;42.38;18.00;;;;;;;0.50;43.24;102570.63;5035547;28;20028;-71
2022/03/21 03:05:11;;;;;;;38.88;19.48;;;;;;;0.48;43.43;102573.81;5019522;28;20069;-70
2022/03/21 03:07:37;;;;;;;36.42;17.00;;;;;;;0.29;43.33;102546.41;5035115;28;20036;-69
2022/03/21 03:10:04;;;;;;;37.83;19.10;;;;;;;0.45;43.52;102571.69;5035859;28;20549;-71
2022/03/21 03:12:31;;;;;;;48.15;19.70;;;;;;;0.44;44.12;102576.47;5035740;28;20040;-70
2022/03/21 03:14:56;;;;;;;41.50;19.15;;;;;;;0.35;44.09;102563.75;5035528;28;20033;-70
2022/03/21 03:17:22;;;;;;;40.45;19.50;;;;;;;0.35;43.79;102573.00;5052671;28;20389;-70
2022/03/21 03:19:48;;;;;;;42.67;18.98;;;;;;;0.30;44.55;102564.84;5035188;28;20131;-71
2022/03/21 03:22:17;;;;;;;44.53;18.85;;;;;;;0.36;44.10;102579.41;5035516;28;20025;-71
2022/03/21 03:24:43;;;;;;;42.40;19.73;;;;;;;0.33;44.55;102575.34;5019325;28;20517;-69
2022/03/21 03:27:09;;;;;;;38.67;18.30;;;;;;;0.19;44.63;102557.28;5018636;28;20112;-70
2022/03/21 03:29:37;;;;;;;33.00;16.17;;;;;;;0.32;45.06;102578.50;5035130;28;20016;-69
2022/03/21 03:32:03;;;;;;;38.28;17.48;;;;;;;0.24;44.55;102571.88;5035374;28;20433;-69
2022/03/21 03:34:30;;;;;;;35.85;17.50;;;;;;;0.23;44.53;102578.63;5035420;28;20033;-70
2022/03/21 03:37:04;;;;;;;40.03;18.45;;;;;;;0.13;45.35;102569.91;5021813;28;20032;-70
2022/03/21 03:39:44;;;;;;;43.85;18.23;;;;;;;0.13;45.63;102576.31;5039218;28;20079;-70
2022/03/21 03:42:09;;;;;;;39.10;18.55;;;;;;;0.11;45.31;102589.84;5057263;28;20370;-69
2022/03/21 03:44:36;;;;;;;38.92;17.60;;;;;;;0.07;45.37;102588.09;5021318;28;20109;-70
2022/03/21 03:47:04;;;;;;;37.20;18.25;;;;;;;0.04;45.50;102583.22;5039040;28;20017;-69
2022/03/21 03:49:30;;;;;;;35.92;17.95;;;;;;;-0.03;45.04;102579.00;5022182;28;20017;-69
2022/03/21 03:51:55;;;;;;;44.85;18.80;;;;;;;-0.05;45.88;102586.13;5055975;28;20379;-69
2022/03/21 03:54:22;;;;;;;36.40;19.55;;;;;;;-0.10;45.92;102578.75;5038786;28;20374;-71
2022/03/21 03:56:48;;;;;;;36.35;18.63;;;;;;;-0.09;45.85;102579.59;5035593;28;20061;-70
2022/03/21 03:59:15;;;;;;;39.25;19.23;;;;;;;-0.09;46.52;102586.00;5036618;28;20025;-70
2022/03/21 04:01:42;;;;;;;39.75;18.35;;;;;;;-0.10;46.71;102578.75;5036562;28;20037;-69
2022/03/21 04:04:08;;;;;;;42.25;20.58;;;;;;;-0.16;46.27;102579.38;5036464;28;20382;-71
2022/03/21 04:06:34;;;;;;;41.65;19.80;;;;;;;-0.12;46.74;102585.91;5035234;28;20022;-71
2022/03/21 04:09:01;;;;;;;37.72;20.30;;;;;;;-0.16;46.84;102580.19;5035255;28;20021;-70
2022/03/21 04:11:27;;;;;;;40.70;20.25;;;;;;;-0.15;47.20;102590.19;5037157;28;20079;-70
2022/03/21 04:13:53;;;;;;;46.58;21.33;;;;;;;-0.18;47.11;102587.28;5035903;28;20025;-69
2022/03/21 04:16:18;;;;;;;38.88;18.35;;;;;;;-0.21;47.26;102591.63;5019152;28;20025;-70
2022/03/21 04:18:45;;;;;;;38.38;17.98;;;;;;;-0.24;47.32;102589.50;5035431;28;20030;-70
2022/03/21 04:21:12;;;;;;;39.83;20.30;;;;;;;-0.28;47.71;102584.94;5020985;28;20030;-71
2022/03/21 04:23:41;;;;;;;41.35;18.55;;;;;;;-0.31;47.58;102585.66;5038757;28;20025;-70
2022/03/21 04:26:09;;;;;;;38.78;19.13;;;;;;;-0.27;47.81;102587.41;5037331;28;20017;-69
2022/03/21 04:28:34;;;;;;;43.22;19.77;;;;;;;-0.28;48.12;102590.53;5036222;28;20080;-68
2022/03/21 04:31:00;;;;;;;39.75;19.33;;;;;;;-0.35;48.26;102582.75;5034919;28;20025;-71
2022/03/21 04:33:27;;;;;;;42.67;20.60;;;;;;;-0.34;48.17;102584.34;5036054;28;20075;-70
2022/03/21 04:35:54;;;;;;;46.03;21.65;;;;;;;-0.51;48.02;102563.00;5034868;28;20029;-70
2022/03/21 04:38:21;;;;;;;52.20;21.17;;;;;;;-0.35;48.51;102595.91;5035586;28;20117;-70
2022/03/21 04:40:49;;;;;;;39.45;19.52;;;;;;;-0.37;48.27;102595.44;5018394;28;20033;-70
2022/03/21 04:43:17;;;;;;;41.90;20.52;;;;;;;-0.40;48.38;102599.78;5034816;28;20158;-70
2022/03/21 04:45:45;;;;;;;39.15;19.13;;;;;;;-0.42;48.39;102588.09;5018335;28;20074;-70
2022/03/21 04:48:11;;;;;;;48.55;19.63;;;;;;;-0.44;48.53;102591.22;5017238;28;20040;-71
2022/03/21 04:50:38;;;;;;;44.00;20.48;;;;;;;-0.47;48.13;102591.94;5018216;28;20029;-71
2022/03/21 04:53:05;;;;;;;48.40;21.05;;;;;;;-0.49;48.43;102585.84;5034981;28;20116;-70
2022/03/21 04:55:32;;;;;;;48.25;21.73;;;;;;;-0.49;48.16;102593.44;5017725;28;20037;-70
2022/03/21 04:57:59;;;;;;;48.42;20.65;;;;;;;-0.48;48.57;102600.66;5017784;28;20525;-70
2022/03/21 05:00:40;;;;;;;53.05;21.23;;;;;;;-0.48;48.86;102595.06;5034096;28;20034;-70
2022/03/21 05:03:07;;;;;;;45.95;21.27;;;;;;;-0.44;48.89;102599.63;5017712;28;20087;-71
2022/03/21 05:05:35;;;;;;;47.42;21.88;;;;;;;-0.48;48.80;102590.28;5034012;28;20048;-71
2022/03/21 05:08:02;;;;;;;46.25;20.15;;;;;;;-0.43;48.67;102601.25;5017837;28;20037;-71
2022/03/21 05:10:28;;;;;;;48.40;20.70;;;;;;;-0.42;49.05;102593.69;5001545;28;20051;-70
2022/03/21 05:12:55;;;;;;;55.00;21.92;;;;;;;-0.43;48.53;102598.47;5034069;28;20025;-70
2022/03/21 05:15:20;;;;;;;45.95;21.52;;;;;;;-0.41;48.80;102594.50;5034113;28;20045;-68
2022/03/21 05:17:46;;;;;;;50.20;23.27;;;;;;;-0.39;49.09;102600.56;5033999;28;20033;-71
2022/03/21 05:20:21;;;;;;;49.60;22.38;;;;;;;-0.36;49.24;102613.88;5033786;28;20045;-70
2022/03/21 05:30:57;;;;;;;55.00;22.95;;;;;;;-0.32;48.59;102609.22;5033997;28;20024;-69
2022/03/21 05:31:05;;;;;;;60.17;25.08;;;;;;;-0.25;48.89;102609.47;5035313;28;20036;-70
2022/03/21 05:36:30;;;;;;;52.95;24.83;;;;;;;-0.15;48.87;102632.19;5034902;28;20041;-69
2022/03/21 05:38:57;;;;;;;57.15;24.73;;;;;;;-0.11;48.95;102632.34;5018950;28;20037;-69
2022/03/21 05:41:24;;;;;;;53.75;24.85;;;;;;;-0.09;48.51;102630.00;5033449;28;20087;-70
2022/03/21 05:43:50;;;;;;;56.15;25.35;;;;;;;-0.21;49.11;102600.03;5033362;28;20029;-70
2022/03/21 05:46:31;;;;;;;70.35;26.52;;;;;;;0.08;48.47;102637.38;5033539;28;20068;-69
2022/03/21 05:49:01;;;;;;;63.65;25.65;;;;;;;0.11;48.19;102634.66;5033290;28;20029;-70
2022/03/21 05:51:31;;;;;;;64.25;27.10;;;;;;;0.20;48.29;102640.19;5033170;28;20454;-70
2022/03/21 05:54:05;;;;;;;61.53;27.40;;;;;;;0.26;47.83;102642.38;5016733;28;20528;-71
2022/03/21 05:56:31;;;;;;;62.30;25.60;;;;;;;0.29;47.98;102630.47;5034092;28;20049;-70
2022/03/21 06:00:20;;;;;;;60.42;26.33;;;;;;;0.45;47.90;102636.16;5033623;28;20076;-70
2022/03/21 06:01:44;;;;;;;71.63;27.90;;;;;;;0.49;48.01;102622.28;5033047;28;20581;-70
2022/03/21 06:04:10;;;;;;;70.57;26.80;;;;;;;0.66;47.77;102634.03;5016294;28;20116;-70
2022/03/21 06:06:36;;;;;;;72.32;26.50;;;;;;;0.79;47.85;102634.81;5032994;28;20053;-69
2022/03/21 06:09:02;;;;;;;74.03;27.25;;;;;;;0.89;47.50;102636.31;5034514;28;20100;-69
2022/03/21 06:11:29;;;;;;;55.03;23.80;;;;;;;0.97;47.24;102627.75;5016382;28;20455;-68
2022/03/21 06:13:54;;;;;;;63.08;25.58;;;;;;;1.14;47.19;102643.44;5034412;28;20028;-69
2022/03/21 06:16:21;;;;;;;57.78;23.27;;;;;;;1.35;47.21;102637.63;5032961;28;20025;-73
2022/03/21 06:18:48;;;;;;;62.78;25.80;;;;;;;2.15;46.52;102643.78;5032883;28;20557;-69
2022/03/21 06:21:16;;;;;;;60.90;23.45;;;;;;;3.43;43.64;102644.59;5032842;28;20025;-70
2022/03/21 06:23:41;;;;;;;78.70;25.35;;;;;;;5.56;40.22;102631.72;5034289;28;20036;-71
2022/03/21 06:26:09;;;;;;;60.15;25.13;;;;;;;8.15;36.64;102620.59;5033794;28;20025;-69
2022/03/21 06:28:36;;;;;;;53.70;23.30;;;;;;;10.68;31.81;102615.25;5030477;28;20065;-70
2022/03/21 06:31:02;;;;;;;51.58;24.52;;;;;;;12.17;28.92;102610.41;5034136;28;20026;-71
2022/03/21 06:33:30;;;;;;;51.75;24.85;;;;;;;13.54;26.89;102606.06;5033284;28;20112;-68
2022/03/21 06:35:59;;;;;;;59.63;26.83;;;;;;;14.84;24.94;102609.78;5032204;28;20041;-70
2022/03/21 06:38:25;;;;;;;47.90;24.85;;;;;;;15.79;23.04;102604.03;5030933;28;20041;-69
2022/03/21 06:40:52;;;;;;;50.08;26.63;;;;;;;17.11;22.19;102606.06;5024642;28;20049;-69
2022/03/21 06:43:19;;;;;;;55.28;26.40;;;;;;;18.48;20.61;102613.31;5012521;28;20037;-70
2022/03/21 06:45:47;;;;;;;68.60;28.35;;;;;;;19.97;19.79;102592.75;5013265;28;20030;-71
2022/03/21 06:48:15;;;;;;;63.95;27.02;;;;;;;21.18;17.67;102603.84;5013280;28;20053;-69
2022/03/21 06:50:46;;;;;;;60.67;27.50;;;;;;;22.34;17.14;102597.16;5012755;28;20018;-70
2022/03/21 06:53:12;;;;;;;54.97;27.30;;;;;;;23.29;15.81;102606.28;5011511;28;20056;-71
2022/03/21 06:55:37;;;;;;;76.05;30.42;;;;;;;23.07;15.87;102604.72;5028115;28;20467;-72
2022/03/21 06:58:08;;;;;;;103.85;30.45;;;;;;;22.18;16.44;102606.41;5027764;28;20065;-70
2022/03/21 07:00:34;;;;;;;67.45;30.77;;;;;;;22.41;15.43;102613.34;5012348;28;20030;-70
2022/03/21 07:03:00;;;;;;;86.97;32.47;;;;;;;23.02;15.32;102622.91;5012017;28;20030;-69
2022/03/21 07:05:28;;;;;;;64.18;29.73;;;;;;;23.89;14.78;102614.78;5012502;28;20057;-71
2022/03/21 07:07:54;;;;;;;49.45;27.90;;;;;;;25.37;13.50;102620.34;5012252;28;20030;-72
2022/03/21 07:10:20;;;;;;;54.33;27.60;;;;;;;26.24;12.76;102611.41;5011665;28;20063;-71
2022/03/21 07:12:47;;;;;;;49.90;26.88;;;;;;;26.62;11.98;102624.31;5012217;28;20021;-69
2022/03/21 07:15:18;;;;;;;50.38;26.98;;;;;;;26.85;11.90;102617.06;5012656;28;20033;-70
2022/03/21 07:17:46;;;;;;;56.15;29.88;;;;;;;26.39;11.98;102617.75;5013585;28;20045;-70
2022/03/21 07:20:14;;;;;;;64.57;29.92;;;;;;;26.64;11.74;102610.75;5027999;28;20515;-71
2022/03/21 07:22:41;;;;;;;68.30;30.05;;;;;;;27.29;11.49;102615.25;5013358;28;20028;-71
2022/03/21 07:25:07;;;;;;;45.00;26.73;;;;;;;27.15;10.94;102620.13;5013336;28;20030;-70
2022/03/21 07:27:33;;;;;;;69.32;28.70;;;;;;;26.83;11.98;102625.59;5013165;28;20112;-69
2022/03/21 07:29:59;;;;;;;57.10;27.15;;;;;;;26.42;11.83;102616.69;5028292;28;20030;-70
2022/03/21 07:32:27;;;;;;;52.53;27.67;;;;;;;26.37;12.34;102629.19;5013381;28;20026;-68
2022/03/21 07:34:53;;;;;;;43.75;26.02;;;;;;;26.28;11.93;102632.38;5014770;28;20029;-69
2022/03/21 07:37:19;;;;;;;68.80;27.70;;;;;;;26.01;12.72;102625.22;5013421;28;20033;-69
2022/03/21 07:39:47;;;;;;;72.72;29.40;;;;;;;26.11;12.71;102631.56;5012910;28;20029;-70
2022/03/21 07:42:19;;;;;;;57.97;27.58;;;;;;;25.78;11.82;102627.34;5013104;28;20026;-70
2022/03/21 07:47:29;;;;;;;53.25;24.20;;;;;;;24.96;13.15;102634.59;5013262;28;20433;-70
2022/03/21 07:49:56;;;;;;;37.63;22.83;;;;;;;24.49;12.98;102630.34;5013920;28;20431;-70
2022/03/21 07:52:22;;;;;;;44.90;23.13;;;;;;;24.44;13.24;102636.94;5013296;28;20080;-70
2022/03/21 07:54:53;;;;;;;42.20;23.48;;;;;;;24.61;12.64;102637.03;5027963;28;20026;-70
2022/03/21 07:57:29;;;;;;;40.85;23.50;;;;;;;24.30;13.22;102632.88;5024396;28;20183;-69
2022/03/21 08:00:05;;;;;;;45.17;25.65;;;;;;;23.63;13.04;102640.25;5015724;28;20055;-70
2022/03/21 08:02:30;;;;;;;37.95;21.90;;;;;;;23.14;13.30;102639.16;5032573;28;20079;-70
2022/03/21 08:05:01;;;;;;;40.60;22.48;;;;;;;22.48;13.93;102635.38;5032760;28;20017;-70
2022/03/21 08:07:27;;;;;;;40.10;23.05;;;;;;;21.22;14.88;102636.34;5033413;28;20048;-70
2022/03/21 08:09:53;;;;;;;35.55;21.35;;;;;;;20.22;16.05;102647.31;5015057;28;20032;-72
2022/03/21 08:12:19;;;;;;;39.97;21.63;;;;;;;19.69;16.53;102646.19;5014845;28;20025;-71
2022/03/21 08:14:47;;;;;;;53.78;23.85;;;;;;;19.59;16.63;102661.97;5032813;28;20111;-69
2022/03/21 08:17:15;;;;;;;37.15;21.02;;;;;;;19.73;16.05;102650.53;5032427;28;20048;-71
2022/03/21 08:19:40;;;;;;;40.10;20.92;;;;;;;19.81;16.56;102646.03;5032522;28;20467;-69
2022/03/21 08:22:16;;;;;;;47.28;21.27;;;;;;;20.25;16.59;102642.63;5034361;28;20033;-68
2022/03/21 08:24:44;;;;;;;40.30;19.70;;;;;;;20.62;16.27;102649.03;5018806;28;20034;-69
2022/03/21 08:27:12;;;;;;;44.72;19.48;;;;;;;21.15;15.29;102637.53;5036585;28;20029;-70
2022/03/21 08:29:39;;;;;;;47.33;19.23;;;;;;;21.18;14.85;102635.75;5036495;28;20022;-71
2022/03/21 08:32:07;;;;;;;35.55;18.52;;;;;;;21.14;15.32;102629.34;5036644;28;20021;-69
2022/03/21 08:34:33;;;;;;;31.38;17.52;;;;;;;21.13;16.02;102634.28;5054841;28;20029;-70
2022/03/21 08:36:58;;;;;;;34.55;17.52;;;;;;;21.00;16.50;102630.88;5056047;28;20020;-70
2022/03/21 08:39:26;;;;;;;28.92;17.30;;;;;;;20.97;16.01;102626.06;5037632;28;20119;-69
2022/03/21 08:41:53;;;;;;;27.95;16.30;;;;;;;20.85;15.19;102627.94;5055724;28;20064;-71
2022/03/21 08:44:20;;;;;;;35.08;17.90;;;;;;;20.35;15.69;102618.16;5055903;28;20033;-72
2022/03/21 08:46:46;;;;;;;32.90;16.17;;;;;;;20.09;15.95;102614.06;5055131;28;20110;-72
2022/03/21 08:49:33;;;;;;;37.33;15.23;;;;;;;19.79;16.46;102619.66;5037964;28;20025;-69
2022/03/21 08:52:01;;;;;;;40.45;17.42;;;;;;;19.54;16.83;102628.72;5056136;28;20021;-72
2022/03/21 08:54:26;;;;;;;33.33;15.20;;;;;;;19.51;17.28;102620.22;5038005;28;20066;-71
2022/03/21 08:56:53;;;;;;;40.92;16.58;;;;;;;19.38;16.89;102623.28;5055240;28;20103;-70
2022/03/21 08:59:19;;;;;;;20.70;14.45;;;;;;;18.98;17.27;102626.38;5055344;28;20025;-70
2022/03/21 09:01:46;;;;;;;39.03;17.27;;;;;;;18.63;17.15;102616.41;5037502;28;20074;-70
2022/03/21 09:04:12;;;;;;;34.60;16.52;;;;;;;17.96;17.09;102605.59;5055469;28;20017;-72
2022/03/21 09:06:39;;;;;;;27.27;16.00;;;;;;;17.52;18.86;102613.53;5055867;28;20377;-72
2022/03/21 09:09:05;;;;;;;28.25;16.10;;;;;;;17.43;19.57;102607.72;5055130;28;20028;-72
2022/03/21 09:11:34;;;;;;;26.10;15.48;;;;;;;17.13;19.52;102592.00;5054935;28;20025;-71
2022/03/21 09:14:02;;;;;;;32.30;16.83;;;;;;;16.87;19.23;102610.69;5037692;28;20025;-70
2022/03/21 09:16:30;;;;;;;32.38;16.10;;;;;;;16.42;19.29;102606.06;5037228;28;20071;-71
2022/03/21 09:18:57;;;;;;;31.02;17.00;;;;;;;16.05;19.36;102607.72;5054835;28;20048;-72
2022/03/21 09:21:25;;;;;;;24.67;14.93;;;;;;;15.76;19.52;102612.78;5055297;28;20369;-70
2022/03/21 09:23:53;;;;;;;27.80;14.90;;;;;;;15.47;19.35;102598.47;5054952;28;20104;-72
2022/03/21 09:26:21;;;;;;;23.30;14.65;;;;;;;15.19;19.78;102605.09;5054966;28;20040;-70
2022/03/21 09:28:48;;;;;;;22.05;13.13;;;;;;;15.15;19.96;102599.44;5037515;28;20021;-70
2022/03/21 09:31:14;;;;;;;26.38;13.52;;;;;;;15.06;19.53;102597.22;5050931;28;20040;-71
2022/03/21 09:33:41;;;;;;;24.38;13.73;;;;;;;14.90;20.31;102591.53;5045381;28;20092;-70
2022/03/21 09:36:09;;;;;;;27.17;14.30;;;;;;;15.05;20.94;102600.53;5016354;28;20037;-72
2022/03/21 09:38:37;;;;;;;27.98;13.50;;;;;;;15.16;19.99;102589.56;5044931;28;20067;-70
2022/03/21 09:41:03;;;;;;;40.33;13.95;;;;;;;15.14;20.07;102590.00;5023495;28;20132;-72
2022/03/21 09:43:31;;;;;;;23.85;12.48;;;;;;;15.16;20.39;102594.50;5035552;28;20032;-71
2022/03/21 09:45:58;;;;;;;36.47;13.98;;;;;;;15.27;20.03;102598.66;5035341;28;20020;-71
2022/03/21 09:48:30;;;;;;;24.27;12.55;;;;;;;15.25;18.99;102606.13;5054233;28;20024;-71
2022/03/21 09:50:57;;;;;;;26.92;11.63;;;;;;;15.19;18.15;102585.81;5019336;28;20130;-69
2022/03/21 09:53:25;;;;;;;28.83;14.48;;;;;;;15.12;18.63;102592.53;5036324;28;20029;-70
2022/03/21 09:55:51;;;;;;;41.00;13.88;;;;;;;14.91;19.11;102595.22;5054277;28;20132;-69
2022/03/21 09:58:20;;;;;;;34.83;12.80;;;;;;;14.85;19.15;102591.31;5036019;28;20124;-72
2022/03/21 10:00:47;;;;;;;32.58;13.25;;;;;;;14.91;19.53;102593.16;5054158;28;20033;-71
2022/03/21 10:03:13;;;;;;;31.45;11.85;;;;;;;14.88;18.79;102590.41;5036883;28;20324;-70
2022/03/21 10:05:43;;;;;;;30.48;12.43;;;;;;;14.88;18.76;102593.25;5036457;28;20523;-71
2022/03/21 10:08:15;;;;;;;26.47;11.97;;;;;;;14.93;19.26;102582.03;5036614;28;20025;-71
2022/03/21 10:11:01;;;;;;;20.10;10.30;;;;;;;15.05;20.28;102575.53;5053874;28;20028;-70
2022/03/21 10:13:34;;;;;;;24.77;11.48;;;;;;;15.32;19.92;102578.00;5037860;28;20108;-73
2022/03/21 10:16:07;;;;;;;21.30;10.63;;;;;;;15.22;19.08;102576.25;5054033;28;20115;-71
2022/03/21 10:18:33;;;;;;;40.30;14.35;;;;;;;15.18;18.65;102577.63;5053605;28;20029;-71
2022/03/21 10:21:13;;;;;;;22.05;11.20;;;;;;;15.09;20.52;102556.16;5035347;28;20082;-72
2022/03/21 10:23:39;;;;;;;28.70;10.85;;;;;;;15.22;20.03;102561.09;5052944;28;20029;-72
2022/03/21 10:26:44;;;;;;;18.27;9.95;;;;;;;15.35;19.20;102562.72;5052413;28;20040;-72
2022/03/21 10:29:11;;;;;;;20.17;11.25;;;;;;;15.25;19.99;102560.19;4971528;28;20026;-71
2022/03/21 10:31:40;;;;;;;27.83;11.32;;;;;;;15.13;19.16;102564.66;4971206;28;20034;-72
2022/03/21 10:34:11;;;;;;;22.95;11.10;;;;;;;14.98;19.24;102566.31;4971093;28;20083;-72
2022/03/21 10:36:58;;;;;;;20.17;10.52;;;;;;;14.63;19.49;102548.88;4971568;28;20077;-72
2022/03/21 10:39:25;;;;;;;22.05;12.23;;;;;;;14.53;19.88;102546.28;4974187;28;20426;-72
2022/03/21 10:42:10;;;;;;;24.27;11.18;;;;;;;14.33;19.26;102557.06;5045503;28;20029;-70
2022/03/21 10:44:38;;;;;;;20.13;10.30;;;;;;;14.26;20.52;102540.84;5051787;28;20037;-69
2022/03/21 10:47:05;;;;;;;39.05;12.75;;;;;;;14.28;19.69;102547.75;5018865;28;20121;-69
2022/03/21 10:49:38;;;;;;;26.55;10.65;;;;;;;14.31;19.05;102542.38;5053483;28;20484;-70
2022/03/21 10:52:18;;;;;;;20.60;9.50;;;;;;;14.08;19.23;102543.38;5035952;28;20553;-71
2022/03/21 10:54:53;;;;;;;20.58;10.75;;;;;;;14.04;20.29;102539.81;5018568;28;20032;-70
2022/03/21 10:57:31;;;;;;;15.30;9.20;;;;;;;14.10;19.87;102543.75;5013554;28;20055;-72
2022/03/21 11:00:17;;;;;;;21.20;10.18;;;;;;;14.06;19.03;102532.34;5015239;28;20044;-72
2022/03/21 11:03:05;;;;;;;32.42;11.75;;;;;;;14.07;19.53;102545.44;5033418;28;20027;-68
2022/03/21 11:05:42;;;;;;;18.55;9.25;;;;;;;13.79;19.65;102532.66;5033574;28;20036;-70
2022/03/21 11:08:10;;;;;;;21.75;9.38;;;;;;;13.71;19.26;102533.28;5015491;28;20021;-69
2022/03/21 11:10:45;;;;;;;20.05;9.77;;;;;;;13.55;19.46;102539.78;5033493;28;20021;-68
2022/03/21 11:13:12;;;;;;;37.58;11.10;;;;;;;13.34;19.07;102526.78;5033097;28;20071;-70
2022/03/21 11:15:40;;;;;;;47.63;13.90;;;;;;;13.13;19.90;102524.38;4999470;28;20466;-68
2022/03/21 11:18:06;;;;;;;20.50;9.57;;;;;;;13.00;19.58;102514.84;5016270;28;20030;-70
2022/03/21 11:20:33;;;;;;;27.60;10.18;;;;;;;12.96;19.93;102522.69;4999150;28;20116;-70
2022/03/21 11:23:01;;;;;;;18.52;9.75;;;;;;;12.95;19.73;102510.44;5015534;28;20033;-72
2022/03/21 11:25:36;;;;;;;19.55;9.88;;;;;;;12.89;20.37;102500.75;5015107;28;20060;-76
2022/03/21 11:28:26;;;;;;;26.20;11.10;;;;;;;13.00;20.36;102514.84;5021180;28;20021;-72
2022/03/21 11:31:11;;;;;;;19.38;9.50;;;;;;;12.96;19.75;102514.94;5053276;28;20090;-72
2022/03/21 11:33:57;;;;;;;26.27;11.52;;;;;;;13.04;20.29;102511.91;5035188;28;20028;-76